Time;durP1;ratioP1;P1;durP2;ratioP2;P2;SDS_P1;SDS_P2;PMS_P1;PMS_P2;Temp;Humidity;BMP_temperature;BMP_pressure;BME280_temperature;BME280_humidity;BME280_pressure;Samples;Min_cycle;Max_cycle;Signal;HPM_P1;HPM_P2
2022/11/15 00:00:19;;;;;;;14.70;8.60;;;;;;;;;;5026086;28;20062;-76
2022/11/15 00:02:45;;;;;;;13.87;9.00;;;;;;;;;;5030401;28;20034;-76
2022/11/15 00:05:13;;;;;;;18.50;8.43;;;;;;;;;;5029020;28;20041;-74
2022/11/15 00:07:39;;;;;;;18.03;8.63;;;;;;;;;;5016449;28;20132;-75
2022/11/15 00:10:06;;;;;;;16.40;8.90;;;;;;;;;;5022836;28;20032;-76
2022/11/15 00:12:34;;;;;;;12.70;8.20;;;;;;;;;;5016996;28;20040;-76
2022/11/15 00:15:00;;;;;;;15.70;8.70;;;;;;;;;;5015433;28;20040;-76
2022/11/15 00:17:26;;;;;;;14.90;8.83;;;;;;;;;;5013698;28;20025;-76
2022/11/15 00:19:52;;;;;;;12.60;7.93;;;;;;;;;;5014056;28;20029;-75
2022/11/15 00:22:18;;;;;;;14.03;7.90;;;;;;;;;;5027357;28;20049;-77
2022/11/15 00:24:44;;;;;;;14.50;8.37;;;;;;;;;;5026122;28;20036;-76
2022/11/15 00:27:10;;;;;;;13.50;8.63;;;;;;;;;;5014607;28;20033;-76
2022/11/15 00:29:38;;;;;;;13.73;9.40;;;;;;;;;;5025226;28;20049;-76
2022/11/15 00:32:04;;;;;;;14.40;8.27;;;;;;;;;;5022675;28;20034;-76
2022/11/15 00:34:30;;;;;;;13.90;8.37;;;;;;;;;;5028491;28;20104;-77
2022/11/15 00:36:59;;;;;;;14.17;8.20;;;;;;;;;;5027056;28;20034;-76
2022/11/15 00:39:25;;;;;;;12.53;8.70;;;;;;;;;;5020201;28;20038;-77
2022/11/15 00:41:51;;;;;;;15.47;8.33;;;;;;;;;;5026252;28;20045;-77
2022/11/15 00:44:17;;;;;;;11.17;7.87;;;;;;;;;;5017194;28;20049;-76
2022/11/15 00:46:43;;;;;;;13.17;8.10;;;;;;;;;;5014541;28;20037;-75
2022/11/15 00:49:09;;;;;;;13.97;7.77;;;;;;;;;;5019298;28;20780;-75
2022/11/15 00:51:35;;;;;;;10.07;7.53;;;;;;;;;;5017556;28;20034;-76
2022/11/15 00:54:01;;;;;;;14.93;8.03;;;;;;;;;;5027278;28;20040;-77
2022/11/15 00:56:27;;;;;;;12.33;8.13;;;;;;;;;;5015631;28;20026;-75
2022/11/15 00:58:53;;;;;;;12.70;9.03;;;;;;;;;;5017872;28;20598;-76
2022/11/15 01:01:19;;;;;;;12.27;8.63;;;;;;;;;;5018410;28;20037;-76
2022/11/15 01:03:45;;;;;;;14.47;8.00;;;;;;;;;;5025528;28;20099;-75
2022/11/15 01:06:14;;;;;;;18.17;8.27;;;;;;;;;;5016256;28;20038;-75
2022/11/15 01:08:40;;;;;;;12.57;7.50;;;;;;;;;;5018683;28;20034;-77
2022/11/15 01:11:11;;;;;;;12.90;8.63;;;;;;;;;;5014463;28;20069;-76
2022/11/15 01:13:37;;;;;;;13.87;7.43;;;;;;;;;;5028115;28;20473;-76
2022/11/15 01:16:08;;;;;;;13.50;8.10;;;;;;;;;;5024718;28;20841;-76
2022/11/15 01:18:34;;;;;;;12.20;7.37;;;;;;;;;;5025870;28;20840;-76
2022/11/15 01:21:00;;;;;;;16.13;8.67;;;;;;;;;;5019510;28;20033;-76
2022/11/15 01:23:26;;;;;;;15.13;8.30;;;;;;;;;;5025477;28;20037;-76
2022/11/15 01:25:52;;;;;;;13.93;8.10;;;;;;;;;;5017159;28;20026;-76
2022/11/15 01:28:18;;;;;;;13.70;8.20;;;;;;;;;;5024938;28;20529;-77
2022/11/15 01:30:44;;;;;;;12.83;8.50;;;;;;;;;;5015672;28;20478;-75
2022/11/15 01:33:10;;;;;;;12.40;8.37;;;;;;;;;;5025809;28;20033;-76
2022/11/15 01:35:39;;;;;;;11.93;7.50;;;;;;;;;;5015726;28;20044;-75
2022/11/15 01:38:05;;;;;;;13.60;8.23;;;;;;;;;;5015671;28;20038;-76
2022/11/15 01:40:31;;;;;;;13.23;8.63;;;;;;;;;;5024605;28;20044;-76
2022/11/15 01:42:57;;;;;;;13.80;8.07;;;;;;;;;;5017857;28;20037;-76
2022/11/15 01:45:23;;;;;;;13.30;8.37;;;;;;;;;;5019629;28;20053;-77
2022/11/15 01:47:51;;;;;;;12.77;7.87;;;;;;;;;;5032680;28;20033;-75
2022/11/15 01:50:21;;;;;;;14.90;7.73;;;;;;;;;;5018606;28;20048;-76
2022/11/15 01:52:47;;;;;;;12.67;8.90;;;;;;;;;;5016488;28;20056;-77
2022/11/15 01:55:20;;;;;;;14.93;8.33;;;;;;;;;;5031045;28;20125;-76
2022/11/15 01:57:48;;;;;;;16.13;7.83;;;;;;;;;;5015082;28;20114;-76
2022/11/15 02:00:14;;;;;;;11.07;8.17;;;;;;;;;;5025124;28;20041;-76
2022/11/15 02:02:40;;;;;;;13.37;7.50;;;;;;;;;;5016886;28;20045;-75
2022/11/15 02:05:07;;;;;;;12.10;7.87;;;;;;;;;;5016936;28;20029;-75
2022/11/15 02:07:36;;;;;;;14.20;8.20;;;;;;;;;;5018034;28;20029;-77
2022/11/15 02:10:10;;;;;;;12.13;8.20;;;;;;;;;;5017849;28;20080;-77
2022/11/15 02:12:36;;;;;;;11.87;8.00;;;;;;;;;;5017232;28;20034;-76
2022/11/15 02:15:03;;;;;;;13.07;7.67;;;;;;;;;;5015978;28;20460;-75
2022/11/15 02:17:47;;;;;;;11.67;7.80;;;;;;;;;;5015369;28;20033;-75
2022/11/15 02:20:19;;;;;;;12.07;8.33;;;;;;;;;;5025977;28;20044;-77
2022/11/15 02:23:22;;;;;;;11.63;7.55;;;;;;;;;;5015698;28;20030;-77
2022/11/15 02:25:48;;;;;;;20.88;8.48;;;;;;;;;;5015622;28;20025;-75
2022/11/15 02:28:31;;;;;;;14.23;7.87;;;;;;;;;;5017130;28;20029;-75
2022/11/15 02:30:57;;;;;;;14.17;7.60;;;;;;;;;;5014894;28;20030;-75
2022/11/15 02:33:29;;;;;;;12.93;8.00;;;;;;;;;;5015550;28;20034;-76
2022/11/15 02:36:00;;;;;;;11.65;7.85;;;;;;;;;;5023729;28;20090;-75
2022/11/15 02:38:26;;;;;;;12.63;8.03;;;;;;;;;;5031734;28;20029;-75
2022/11/15 02:41:03;;;;;;;11.00;7.53;;;;;;;;;;5016249;28;20665;-76
2022/11/15 02:43:57;;;;;;;12.37;7.87;;;;;;;;;;5022671;28;20034;-77
2022/11/15 02:49:26;;;;;;;13.80;7.57;;;;;;;;;;5015618;28;21752;-76
2022/11/15 02:51:53;;;;;;;11.77;8.27;;;;;;;;;;5025220;28;20030;-76
2022/11/15 02:54:22;;;;;;;11.70;8.20;;;;;;;;;;5014023;28;20037;-75
2022/11/15 02:56:48;;;;;;;9.77;7.80;;;;;;;;;;5027466;28;20037;-77
2022/11/15 02:59:17;;;;;;;15.60;8.97;;;;;;;;;;5024030;28;20401;-76
2022/11/15 03:01:43;;;;;;;12.30;8.10;;;;;;;;;;5013603;28;20029;-75
2022/11/15 03:04:09;;;;;;;16.57;8.47;;;;;;;;;;5015460;28;20856;-76
2022/11/15 03:06:36;;;;;;;16.77;7.80;;;;;;;;;;5015326;28;20030;-77
2022/11/15 03:09:02;;;;;;;14.00;8.30;;;;;;;;;;5023110;28;20452;-76
2022/11/15 03:11:30;;;;;;;9.93;7.73;;;;;;;;;;5027017;28;20033;-76
2022/11/15 03:13:59;;;;;;;14.00;7.90;;;;;;;;;;5016169;28;20152;-75
2022/11/15 03:16:25;;;;;;;12.67;7.73;;;;;;;;;;5022861;28;20061;-76
2022/11/15 03:18:54;;;;;;;11.93;7.47;;;;;;;;;;5015117;28;20076;-76
2022/11/15 03:21:22;;;;;;;14.63;8.63;;;;;;;;;;5047071;28;20057;-75
2022/11/15 03:23:51;;;;;;;11.13;7.90;;;;;;;;;;5018329;28;20045;-77
2022/11/15 03:26:19;;;;;;;11.03;7.23;;;;;;;;;;5030192;28;20542;-76
2022/11/15 03:28:51;;;;;;;11.60;7.67;;;;;;;;;;5015437;28;20045;-76
2022/11/15 03:34:06;;;;;;;11.10;7.83;;;;;;;;;;5014619;28;20065;-76
2022/11/15 03:36:33;;;;;;;10.33;7.47;;;;;;;;;;5025482;28;20041;-76
2022/11/15 03:39:01;;;;;;;10.97;7.77;;;;;;;;;;5016451;28;20079;-75
2022/11/15 03:41:40;;;;;;;14.60;7.67;;;;;;;;;;5022162;28;20065;-76
2022/11/15 03:44:09;;;;;;;13.13;8.27;;;;;;;;;;5013498;28;20044;-76
2022/11/15 03:46:41;;;;;;;13.80;7.67;;;;;;;;;;5013560;28;20133;-76
2022/11/15 03:49:10;;;;;;;12.25;8.00;;;;;;;;;;5021689;28;20537;-75
2022/11/15 03:51:37;;;;;;;13.67;8.07;;;;;;;;;;5030218;28;20030;-75
2022/11/15 03:54:04;;;;;;;13.33;8.27;;;;;;;;;;5013466;28;20061;-76
2022/11/15 03:56:31;;;;;;;10.30;6.87;;;;;;;;;;5023865;28;20033;-76
2022/11/15 03:58:56;;;;;;;9.90;7.20;;;;;;;;;;5015992;28;20069;-77
2022/11/15 04:01:22;;;;;;;10.93;6.40;;;;;;;;;;5025043;28;20057;-77
2022/11/15 04:03:48;;;;;;;10.73;6.73;;;;;;;;;;5013300;28;20059;-77
2022/11/15 04:06:15;;;;;;;10.63;7.00;;;;;;;;;;5014248;28;20111;-77
2022/11/15 04:08:43;;;;;;;8.80;5.90;;;;;;;;;;5013162;28;20034;-76
2022/11/15 04:11:09;;;;;;;11.43;6.57;;;;;;;;;;5018471;28;20549;-75
2022/11/15 04:13:35;;;;;;;9.67;6.10;;;;;;;;;;5020348;28;20033;-76
2022/11/15 04:16:01;;;;;;;10.87;6.00;;;;;;;;;;5018097;28;20076;-76
2022/11/15 04:18:27;;;;;;;8.37;6.23;;;;;;;;;;5031224;28;20055;-76
2022/11/15 04:26:20;;;;;;;8.60;6.93;;;;;;;;;;5018045;28;20997;-76
2022/11/15 04:31:30;;;;;;;9.83;6.73;;;;;;;;;;5016693;28;20048;-76
2022/11/15 04:33:56;;;;;;;9.33;6.13;;;;;;;;;;5023942;28;20121;-74
2022/11/15 04:39:07;;;;;;;11.70;6.53;;;;;;;;;;5017018;28;20095;-75
2022/11/15 04:41:33;;;;;;;9.83;6.63;;;;;;;;;;5016793;28;20030;-76
2022/11/15 04:44:02;;;;;;;8.17;6.40;;;;;;;;;;5025148;28;20052;-75
2022/11/15 04:46:28;;;;;;;9.37;6.80;;;;;;;;;;5018076;28;20038;-75
2022/11/15 04:48:54;;;;;;;8.77;6.80;;;;;;;;;;5032147;28;20481;-75
2022/11/15 04:51:21;;;;;;;8.60;6.47;;;;;;;;;;5027466;28;20057;-74
2022/11/15 04:53:47;;;;;;;9.77;6.93;;;;;;;;;;5017101;28;20046;-75
2022/11/15 04:56:13;;;;;;;9.37;6.70;;;;;;;;;;5026312;28;20032;-75
2022/11/15 04:58:39;;;;;;;9.07;6.70;;;;;;;;;;5025496;28;20033;-76
2022/11/15 05:01:08;;;;;;;10.20;6.90;;;;;;;;;;5029777;28;20112;-76
2022/11/15 05:06:22;;;;;;;10.33;7.20;;;;;;;;;;5017821;28;20103;-75
2022/11/15 05:08:48;;;;;;;10.27;6.17;;;;;;;;;;5018792;28;20044;-76
2022/11/15 05:11:16;;;;;;;8.60;5.77;;;;;;;;;;5017691;28;20029;-75
2022/11/15 05:13:42;;;;;;;8.30;6.27;;;;;;;;;;5015202;28;20038;-74
2022/11/15 05:16:08;;;;;;;9.03;6.03;;;;;;;;;;5032830;28;20032;-76
2022/11/15 05:18:34;;;;;;;10.97;6.50;;;;;;;;;;5015915;28;20363;-75
2022/11/15 05:21:04;;;;;;;11.30;6.40;;;;;;;;;;5016162;28;20109;-76
2022/11/15 05:23:30;;;;;;;7.33;6.00;;;;;;;;;;5024997;28;20049;-75
2022/11/15 05:25:59;;;;;;;8.03;6.10;;;;;;;;;;5027784;28;20029;-75
2022/11/15 05:28:25;;;;;;;9.73;5.70;;;;;;;;;;5017563;28;20125;-74
2022/11/15 05:30:51;;;;;;;10.83;6.57;;;;;;;;;;5028445;28;21797;-74
2022/11/15 05:33:17;;;;;;;10.93;6.40;;;;;;;;;;5033585;28;20045;-76
2022/11/15 05:35:47;;;;;;;9.07;6.63;;;;;;;;;;5017824;28;20478;-76
2022/11/15 05:38:13;;;;;;;10.47;6.23;;;;;;;;;;5016695;28;20050;-76
2022/11/15 05:40:39;;;;;;;9.03;5.93;;;;;;;;;;5019894;28;20327;-77
2022/11/15 05:43:07;;;;;;;8.03;5.90;;;;;;;;;;5023893;28;20044;-77
2022/11/15 05:45:35;;;;;;;10.00;6.30;;;;;;;;;;5018691;28;20029;-77
2022/11/15 05:48:01;;;;;;;8.67;5.37;;;;;;;;;;5015057;28;20048;-78
2022/11/15 05:50:28;;;;;;;7.33;5.53;;;;;;;;;;5020895;28;20085;-78
2022/11/15 05:52:54;;;;;;;9.57;6.17;;;;;;;;;;5027519;28;20029;-77
2022/11/15 05:55:20;;;;;;;9.43;6.00;;;;;;;;;;5031091;28;20033;-77
2022/11/15 05:57:46;;;;;;;7.13;4.87;;;;;;;;;;5016751;28;20026;-77
2022/11/15 06:00:13;;;;;;;6.60;5.37;;;;;;;;;;5028623;28;20030;-77
2022/11/15 06:02:39;;;;;;;6.77;5.23;;;;;;;;;;5015573;28;20030;-77
2022/11/15 06:05:05;;;;;;;8.30;6.03;;;;;;;;;;5016471;28;20075;-77
2022/11/15 06:07:31;;;;;;;7.20;5.73;;;;;;;;;;5013696;28;20088;-76
2022/11/15 06:09:57;;;;;;;10.00;5.90;;;;;;;;;;5027436;28;20037;-77
2022/11/15 06:12:25;;;;;;;10.27;6.27;;;;;;;;;;5013975;28;20040;-78
2022/11/15 06:14:54;;;;;;;7.93;5.67;;;;;;;;;;5015185;28;20025;-76
2022/11/15 06:17:20;;;;;;;7.70;5.97;;;;;;;;;;5027791;28;20033;-77
2022/11/15 06:19:48;;;;;;;9.67;6.33;;;;;;;;;;5031173;28;20517;-77
2022/11/15 06:22:14;;;;;;;9.93;6.50;;;;;;;;;;5024484;28;21556;-77
2022/11/15 06:24:40;;;;;;;8.13;6.43;;;;;;;;;;5030961;28;20599;-76
2022/11/15 06:27:06;;;;;;;7.70;6.70;;;;;;;;;;5023196;28;20034;-77
2022/11/15 06:29:34;;;;;;;8.90;6.50;;;;;;;;;;5009132;28;20040;-77
2022/11/15 06:32:03;;;;;;;13.30;6.37;;;;;;;;;;5014380;28;20061;-77
2022/11/15 06:34:29;;;;;;;8.30;6.53;;;;;;;;;;5016984;28;20033;-76
2022/11/15 06:36:55;;;;;;;8.87;5.90;;;;;;;;;;5014909;28;20033;-78
2022/11/15 06:39:21;;;;;;;14.00;6.00;;;;;;;;;;5026620;28;20087;-76
2022/11/15 06:41:47;;;;;;;8.40;5.50;;;;;;;;;;5026996;28;20033;-77
2022/11/15 06:44:13;;;;;;;7.53;5.87;;;;;;;;;;5029239;28;20042;-76
2022/11/15 06:46:39;;;;;;;6.37;5.07;;;;;;;;;;5012098;28;20622;-76
2022/11/15 06:49:04;;;;;;;6.87;4.33;;;;;;;;;;5027076;28;20037;-76
2022/11/15 06:51:30;;;;;;;8.90;4.30;;;;;;;;;;5026033;28;20037;-77
2022/11/15 06:53:59;;;;;;;6.50;3.30;;;;;;;;;;5027913;28;20038;-76
2022/11/15 06:56:25;;;;;;;5.43;3.40;;;;;;;;;;5016398;28;20038;-77
2022/11/15 06:58:53;;;;;;;4.97;3.63;;;;;;;;;;5031663;28;20344;-76
2022/11/15 07:01:19;;;;;;;4.13;3.23;;;;;;;;;;5026916;28;20728;-76
2022/11/15 07:03:46;;;;;;;4.73;3.00;;;;;;;;;;5024892;28;20129;-76
2022/11/15 07:06:12;;;;;;;5.90;3.30;;;;;;;;;;5029045;28;20041;-76
2022/11/15 07:08:38;;;;;;;5.47;2.47;;;;;;;;;;5029223;28;20461;-75
2022/11/15 07:11:11;;;;;;;4.07;3.00;;;;;;;;;;5026066;28;20026;-77
2022/11/15 07:13:37;;;;;;;5.37;2.73;;;;;;;;;;5025939;28;20060;-77
2022/11/15 07:16:06;;;;;;;4.13;2.73;;;;;;;;;;5026025;28;20026;-77
2022/11/15 07:18:35;;;;;;;7.27;3.53;;;;;;;;;;5014504;28;20030;-76
2022/11/15 07:21:05;;;;;;;3.77;2.80;;;;;;;;;;5012961;28;20044;-76
2022/11/15 07:23:31;;;;;;;5.83;2.63;;;;;;;;;;5022665;28;20521;-77
2022/11/15 07:25:58;;;;;;;5.17;2.80;;;;;;;;;;5006218;28;20026;-77
2022/11/15 07:28:29;;;;;;;7.67;2.57;;;;;;;;;;5014146;28;20037;-77
2022/11/15 07:30:55;;;;;;;4.83;2.53;;;;;;;;;;5012642;28;20264;-77
2022/11/15 07:33:21;;;;;;;13.03;7.10;;;;;;;;;;5017771;28;20041;-77
2022/11/15 07:35:50;;;;;;;12.07;4.03;;;;;;;;;;5012728;28;20040;-76
2022/11/15 07:38:19;;;;;;;5.23;2.57;;;;;;;;;;5029915;28;20026;-76
2022/11/15 07:40:47;;;;;;;5.07;2.17;;;;;;;;;;5022237;28;20734;-77
2022/11/15 07:43:13;;;;;;;4.17;2.40;;;;;;;;;;5016075;28;20030;-76
2022/11/15 07:45:43;;;;;;;3.67;2.03;;;;;;;;;;5023537;28;20037;-76
2022/11/15 07:48:11;;;;;;;3.97;2.43;;;;;;;;;;5027124;28;20116;-78
2022/11/15 07:50:40;;;;;;;6.07;2.80;;;;;;;;;;5015323;28;20030;-76
2022/11/15 07:53:12;;;;;;;3.57;2.03;;;;;;;;;;5016227;28;20636;-76
2022/11/15 07:55:40;;;;;;;4.45;2.28;;;;;;;;;;5014299;28;20030;-77
2022/11/15 07:58:07;;;;;;;4.33;2.43;;;;;;;;;;5030722;28;20034;-77
2022/11/15 08:00:35;;;;;;;7.97;2.20;;;;;;;;;;5025732;28;20038;-78
2022/11/15 08:03:04;;;;;;;4.10;2.00;;;;;;;;;;5029506;28;20125;-76
2022/11/15 08:05:33;;;;;;;5.77;2.30;;;;;;;;;;5025883;28;20041;-76
2022/11/15 08:07:59;;;;;;;6.73;2.30;;;;;;;;;;5013730;28;20025;-77
2022/11/15 08:10:25;;;;;;;2.97;2.07;;;;;;;;;;5025036;28;20039;-78
2022/11/15 08:13:01;;;;;;;9.57;2.30;;;;;;;;;;5024113;28;20343;-77
2022/11/15 08:15:28;;;;;;;10.40;2.77;;;;;;;;;;5027345;28;20017;-76
2022/11/15 08:17:55;;;;;;;6.40;2.57;;;;;;;;;;5015540;28;20122;-77
2022/11/15 08:20:23;;;;;;;4.33;2.23;;;;;;;;;;5015791;28;20044;-75
2022/11/15 08:22:49;;;;;;;4.60;2.03;;;;;;;;;;5014833;28;20033;-77
2022/11/15 08:25:15;;;;;;;4.67;2.33;;;;;;;;;;5014338;28;20474;-76
2022/11/15 08:27:42;;;;;;;3.97;2.20;;;;;;;;;;5013019;28;20037;-77
2022/11/15 08:30:09;;;;;;;5.20;1.97;;;;;;;;;;5015630;28;20538;-75
2022/11/15 08:32:35;;;;;;;5.60;1.80;;;;;;;;;;5023170;28;20120;-76
2022/11/15 08:35:01;;;;;;;4.27;2.43;;;;;;;;;;5027443;28;20112;-77
2022/11/15 08:37:29;;;;;;;2.77;1.40;;;;;;;;;;5013780;28;20109;-76
2022/11/15 08:39:55;;;;;;;1.73;1.13;;;;;;;;;;5023162;28;20045;-76
2022/11/15 08:42:23;;;;;;;1.80;1.27;;;;;;;;;;5015063;28;20393;-76
2022/11/15 08:44:52;;;;;;;2.07;1.43;;;;;;;;;;5014665;28;20113;-77
2022/11/15 08:47:18;;;;;;;2.73;1.53;;;;;;;;;;5015606;28;20037;-77
2022/11/15 08:49:44;;;;;;;1.70;1.07;;;;;;;;;;5012380;28;20131;-77
2022/11/15 08:52:10;;;;;;;4.83;1.67;;;;;;;;;;5014940;28;20436;-76
2022/11/15 08:54:36;;;;;;;4.60;1.70;;;;;;;;;;5014518;28;20045;-77
2022/11/15 08:57:02;;;;;;;4.00;1.50;;;;;;;;;;5026752;28;20064;-77
2022/11/15 08:59:28;;;;;;;6.33;1.27;;;;;;;;;;5026322;28;20459;-77
2022/11/15 09:01:54;;;;;;;3.53;1.73;;;;;;;;;;5031316;28;20125;-77
2022/11/15 09:04:20;;;;;;;8.30;1.50;;;;;;;;;;5016261;28;20435;-77
2022/11/15 09:06:46;;;;;;;2.60;1.10;;;;;;;;;;5028147;28;20051;-77
2022/11/15 09:09:12;;;;;;;4.33;1.40;;;;;;;;;;5031412;28;20044;-77
2022/11/15 09:11:40;;;;;;;6.73;2.37;;;;;;;;;;5025947;28;20105;-76
2022/11/15 09:14:07;;;;;;;5.53;1.70;;;;;;;;;;5016971;28;20451;-76
2022/11/15 09:16:36;;;;;;;4.20;1.53;;;;;;;;;;5031881;28;20034;-77
2022/11/15 09:19:02;;;;;;;6.40;1.63;;;;;;;;;;5028894;28;20033;-76
2022/11/15 09:21:29;;;;;;;4.30;1.50;;;;;;;;;;5021529;28;20038;-75
2022/11/15 09:23:57;;;;;;;2.77;1.30;;;;;;;;;;5030410;28;20084;-76
2022/11/15 09:26:25;;;;;;;3.07;1.40;;;;;;;;;;5018675;28;20029;-77
2022/11/15 09:28:51;;;;;;;4.97;1.37;;;;;;;;;;5031263;28;20056;-76
2022/11/15 09:31:17;;;;;;;4.30;1.20;;;;;;;;;;5018152;28;20455;-76
2022/11/15 09:33:46;;;;;;;3.67;1.17;;;;;;;;;;5027967;28;20191;-76
2022/11/15 09:36:12;;;;;;;4.17;1.23;;;;;;;;;;5016653;28;20053;-77
2022/11/15 09:38:38;;;;;;;2.07;1.03;;;;;;;;;;5018462;28;20068;-74
2022/11/15 09:41:28;;;;;;;3.30;1.07;;;;;;;;;;5022869;28;20069;-77
2022/11/15 09:43:57;;;;;;;6.03;3.27;;;;;;;;;;5014772;28;20061;-76
2022/11/15 09:46:38;;;;;;;5.13;0.97;;;;;;;;;;5018787;28;20052;-76
2022/11/15 09:49:08;;;;;;;4.47;1.83;;;;;;;;;;5015008;28;20124;-76
2022/11/15 09:51:36;;;;;;;2.57;1.10;;;;;;;;;;5026197;28;20033;-77
2022/11/15 09:54:02;;;;;;;3.77;1.40;;;;;;;;;;5019461;28;20053;-77
2022/11/15 09:56:30;;;;;;;2.30;1.10;;;;;;;;;;5019493;28;20327;-76
2022/11/15 09:58:56;;;;;;;3.00;0.90;;;;;;;;;;5028401;28;20094;-77
2022/11/15 10:01:46;;;;;;;1.97;0.87;;;;;;;;;;5036477;28;20123;-77
2022/11/15 10:04:12;;;;;;;2.67;0.90;;;;;;;;;;5050249;28;20041;-76
2022/11/15 10:06:41;;;;;;;5.03;1.30;;;;;;;;;;5031352;28;20030;-77
2022/11/15 10:09:12;;;;;;;5.77;1.20;;;;;;;;;;5018063;28;20092;-75
2022/11/15 10:11:40;;;;;;;4.23;1.00;;;;;;;;;;5027730;28;20455;-77
2022/11/15 10:14:26;;;;;;;3.17;1.33;;;;;;;;;;5018697;28;20058;-77
2022/11/15 10:17:05;;;;;;;3.97;1.20;;;;;;;;;;5020335;28;20088;-77
2022/11/15 10:19:53;;;;;;;4.33;0.70;;;;;;;;;;5016795;28;20037;-77
2022/11/15 10:22:22;;;;;;;4.40;1.00;;;;;;;;;;5027307;28;20099;-77
2022/11/15 10:24:48;;;;;;;4.20;1.13;;;;;;;;;;5016192;28;20033;-76
2022/11/15 10:27:19;;;;;;;2.63;0.60;;;;;;;;;;5017547;28;20029;-77
2022/11/15 10:29:55;;;;;;;2.43;0.80;;;;;;;;;;5015626;28;20459;-77
2022/11/15 10:32:23;;;;;;;4.37;0.70;;;;;;;;;;5015615;28;20056;-76
2022/11/15 10:34:50;;;;;;;2.33;0.77;;;;;;;;;;5033623;28;20058;-77
2022/11/15 10:37:27;;;;;;;2.10;0.53;;;;;;;;;;5030609;28;20558;-77
2022/11/15 10:40:06;;;;;;;3.13;0.40;;;;;;;;;;5017614;28;20030;-77
2022/11/15 10:42:34;;;;;;;7.87;1.20;;;;;;;;;;5016972;28;20029;-76
2022/11/15 10:45:00;;;;;;;1.70;0.70;;;;;;;;;;5016825;28;20030;-77
2022/11/15 10:47:31;;;;;;;2.63;0.93;;;;;;;;;;5028908;28;20055;-76
2022/11/15 10:49:59;;;;;;;5.43;0.70;;;;;;;;;;5015716;28;20026;-77
2022/11/15 10:52:27;;;;;;;1.93;0.80;;;;;;;;;;5023828;28;20367;-77
2022/11/15 10:54:58;;;;;;;4.20;1.07;;;;;;;;;;5029654;28;20030;-75
2022/11/15 10:57:25;;;;;;;2.90;0.93;;;;;;;;;;5017838;28;20037;-77
2022/11/15 11:00:17;;;;;;;1.67;0.50;;;;;;;;;;5028534;28;20122;-76
2022/11/15 11:02:56;;;;;;;3.22;0.75;;;;;;;;;;5011429;28;20049;-76
2022/11/15 11:05:27;;;;;;;3.80;0.77;;;;;;;;;;5023504;28;20033;-77
2022/11/15 11:08:04;;;;;;;2.27;0.70;;;;;;;;;;5013517;28;20037;-77
2022/11/15 11:10:33;;;;;;;2.20;0.50;;;;;;;;;;5014361;28;20113;-77
2022/11/15 11:13:13;;;;;;;2.30;0.57;;;;;;;;;;5013932;28;20026;-77
2022/11/15 11:15:40;;;;;;;0.90;0.60;;;;;;;;;;5023432;28;20033;-77
2022/11/15 11:18:15;;;;;;;5.10;0.63;;;;;;;;;;5028638;28;20034;-76
2022/11/15 11:20:55;;;;;;;1.60;0.63;;;;;;;;;;5022803;28;20176;-77
2022/11/15 11:23:37;;;;;;;4.83;0.60;;;;;;;;;;5015350;28;20029;-77
2022/11/15 11:26:12;;;;;;;3.10;0.50;;;;;;;;;;5015530;28;20059;-76
2022/11/15 11:28:49;;;;;;;3.63;0.70;;;;;;;;;;5022752;28;20047;-77
2022/11/15 11:31:28;;;;;;;1.77;0.70;;;;;;;;;;5015676;28;20085;-76
2022/11/15 11:34:12;;;;;;;1.57;0.50;;;;;;;;;;5014814;28;20390;-78
2022/11/15 11:36:48;;;;;;;3.90;0.97;;;;;;;;;;5026481;28;20029;-77
2022/11/15 11:39:18;;;;;;;3.70;0.70;;;;;;;;;;5022862;28;20120;-77
2022/11/15 11:41:52;;;;;;;6.83;1.03;;;;;;;;;;5014121;28;20077;-77
2022/11/15 11:44:26;;;;;;;1.80;0.90;;;;;;;;;;5014353;28;20136;-76
2022/11/15 11:47:00;;;;;;;3.33;1.10;;;;;;;;;;5015556;28;20087;-76
2022/11/15 11:49:37;;;;;;;3.67;1.00;;;;;;;;;;5015219;28;20030;-76
2022/11/15 11:52:09;;;;;;;5.50;1.10;;;;;;;;;;5014826;28;20500;-76
2022/11/15 11:54:41;;;;;;;3.20;1.05;;;;;;;;;;5026495;28;20041;-76
2022/11/15 11:57:14;;;;;;;1.47;0.73;;;;;;;;;;5014499;28;20108;-77
2022/11/15 11:59:47;;;;;;;5.90;1.08;;;;;;;;;;5016275;28;20033;-76
2022/11/15 12:02:18;;;;;;;2.20;0.70;;;;;;;;;;5012542;28;20118;-77
2022/11/15 12:04:51;;;;;;;2.60;0.63;;;;;;;;;;5028663;28;20030;-76
2022/11/15 12:07:17;;;;;;;2.80;0.70;;;;;;;;;;5012015;28;20030;-77
2022/11/15 12:09:50;;;;;;;2.08;0.60;;;;;;;;;;5013684;28;20044;-76
2022/11/15 12:12:26;;;;;;;5.55;0.63;;;;;;;;;;5030946;28;20125;-77
2022/11/15 12:14:56;;;;;;;2.28;0.50;;;;;;;;;;5023109;28;20037;-77
2022/11/15 12:17:26;;;;;;;1.70;0.70;;;;;;;;;;5014727;28;20529;-77
2022/11/15 12:19:56;;;;;;;3.25;0.75;;;;;;;;;;5030548;28;20064;-77
2022/11/15 12:22:29;;;;;;;2.75;0.63;;;;;;;;;;5031134;28;20060;-77
2022/11/15 12:24:59;;;;;;;4.78;1.25;;;;;;;;;;5016420;28;20466;-76
2022/11/15 12:27:44;;;;;;;4.78;1.45;;;;;;;;;;5013938;28;20034;-78
2022/11/15 12:30:14;;;;;;;3.38;1.27;;;;;;;;;;5014912;28;20459;-77
2022/11/15 12:32:49;;;;;;;4.68;1.10;;;;;;;;;;5030712;28;20088;-77
2022/11/15 12:35:40;;;;;;;12.82;0.93;;;;;;;;;;5031162;28;20026;-77
2022/11/15 12:38:12;;;;;;;3.00;0.70;;;;;;;;;;5017178;28;20030;-76
2022/11/15 12:40:41;;;;;;;1.52;0.50;;;;;;;;;;5019380;28;20030;-76
2022/11/15 12:43:13;;;;;;;3.60;0.73;;;;;;;;;;5019426;28;20041;-76
2022/11/15 12:45:40;;;;;;;2.78;0.88;;;;;;;;;;5018791;28;20754;-77
2022/11/15 12:48:18;;;;;;;3.55;0.77;;;;;;;;;;5026274;28;20440;-78
2022/11/15 12:50:53;;;;;;;2.83;0.63;;;;;;;;;;5016184;28;20088;-76
2022/11/15 12:53:26;;;;;;;2.40;0.50;;;;;;;;;;5028863;28;20045;-77
2022/11/15 12:56:05;;;;;;;3.72;0.95;;;;;;;;;;5017334;28;20785;-77
2022/11/15 12:58:46;;;;;;;2.85;1.20;;;;;;;;;;5029102;28;20118;-76
2022/11/15 13:01:35;;;;;;;3.72;0.90;;;;;;;;;;5032856;28;20152;-77
2022/11/15 13:04:26;;;;;;;3.90;0.82;;;;;;;;;;5017771;28;20088;-77
2022/11/15 13:06:55;;;;;;;3.28;0.93;;;;;;;;;;5030654;28;20053;-77
2022/11/15 13:09:34;;;;;;;2.47;0.60;;;;;;;;;;5016987;28;20530;-77
2022/11/15 13:12:06;;;;;;;2.25;0.70;;;;;;;;;;5025668;28;20052;-75
2022/11/15 13:14:41;;;;;;;4.65;1.10;;;;;;;;;;5017345;28;20164;-77
2022/11/15 13:17:17;;;;;;;5.57;0.90;;;;;;;;;;5018162;28;20044;-76
2022/11/15 13:19:44;;;;;;;5.43;1.25;;;;;;;;;;5015998;28;20033;-77
2022/11/15 13:24:57;;;;;;;3.13;0.77;;;;;;;;;;5016940;28;20172;-76
2022/11/15 13:27:23;;;;;;;3.92;1.13;;;;;;;;;;5023741;28;20052;-76
2022/11/15 13:29:49;;;;;;;4.07;1.10;;;;;;;;;;5029341;28;20389;-77
2022/11/15 13:32:16;;;;;;;2.42;1.23;;;;;;;;;;5029869;28;20041;-76
2022/11/15 13:34:47;;;;;;;5.93;1.33;;;;;;;;;;5030468;28;20026;-77
2022/11/15 13:37:28;;;;;;;5.60;1.30;;;;;;;;;;5015256;28;21015;-77
2022/11/15 13:39:56;;;;;;;3.33;1.30;;;;;;;;;;5031523;28;20041;-75
2022/11/15 13:42:28;;;;;;;4.28;1.40;;;;;;;;;;5015058;28;20034;-76
2022/11/15 13:45:02;;;;;;;2.75;1.25;;;;;;;;;;5017738;28;20068;-76
2022/11/15 13:47:28;;;;;;;2.67;1.33;;;;;;;;;;5017706;28;20088;-77
2022/11/15 13:49:57;;;;;;;8.65;2.33;;;;;;;;;;5028304;28;20040;-77
2022/11/15 13:52:25;;;;;;;7.82;1.50;;;;;;;;;;5017499;28;20033;-77
2022/11/15 13:54:54;;;;;;;4.80;2.15;;;;;;;;;;5015765;28;20110;-76
2022/11/15 13:57:25;;;;;;;7.03;1.80;;;;;;;;;;5015964;28;20175;-78
2022/11/15 13:59:56;;;;;;;4.97;2.17;;;;;;;;;;5028757;28;20034;-77
2022/11/15 14:02:27;;;;;;;3.57;2.00;;;;;;;;;;5015242;28;20042;-77
2022/11/15 14:05:16;;;;;;;3.90;2.25;;;;;;;;;;5030902;28;20065;-76
2022/11/15 14:07:53;;;;;;;4.28;2.10;;;;;;;;;;5010376;28;20107;-77
2022/11/15 14:10:30;;;;;;;10.45;2.88;;;;;;;;;;5016773;28;20048;-76
2022/11/15 14:12:57;;;;;;;7.90;3.22;;;;;;;;;;5025418;28;20044;-77
2022/11/15 14:15:30;;;;;;;4.40;1.90;;;;;;;;;;5015640;28;20108;-77
2022/11/15 14:17:56;;;;;;;4.07;2.00;;;;;;;;;;5031042;28;20061;-77
2022/11/15 14:20:28;;;;;;;6.45;2.10;;;;;;;;;;5016003;28;20037;-76
2022/11/15 14:22:55;;;;;;;2.90;1.92;;;;;;;;;;5016275;28;20041;-77
2022/11/15 14:25:22;;;;;;;4.88;1.70;;;;;;;;;;5022551;28;20112;-77
2022/11/15 14:28:07;;;;;;;6.25;1.52;;;;;;;;;;5017182;28;20041;-77
2022/11/15 14:30:33;;;;;;;3.10;1.83;;;;;;;;;;5027934;28;20095;-77
2022/11/15 14:33:02;;;;;;;5.50;1.70;;;;;;;;;;5014589;28;20029;-75
2022/11/15 14:35:28;;;;;;;2.72;1.95;;;;;;;;;;5023376;28;20463;-78
2022/11/15 14:37:54;;;;;;;4.18;2.10;;;;;;;;;;5013974;28;20117;-76
2022/11/15 14:40:21;;;;;;;5.05;2.03;;;;;;;;;;5016361;28;20480;-76
2022/11/15 14:42:48;;;;;;;7.65;1.60;;;;;;;;;;5015586;28;20109;-76
2022/11/15 14:45:14;;;;;;;11.15;2.97;;;;;;;;;;5016293;28;20038;-76
2022/11/15 14:47:40;;;;;;;6.72;2.10;;;;;;;;;;5016066;28;20091;-77
2022/11/15 14:50:06;;;;;;;8.07;2.15;;;;;;;;;;5014469;28;20044;-75
2022/11/15 14:52:35;;;;;;;6.73;1.47;;;;;;;;;;5048575;28;20030;-77
2022/11/15 14:55:02;;;;;;;10.80;1.98;;;;;;;;;;5026997;28;20045;-76
2022/11/15 14:57:28;;;;;;;4.07;1.77;;;;;;;;;;5014525;28;20457;-77
2022/11/15 14:59:54;;;;;;;4.15;1.83;;;;;;;;;;5014447;28;20030;-76
2022/11/15 15:02:22;;;;;;;6.45;2.20;;;;;;;;;;5015633;28;20048;-77
2022/11/15 15:04:48;;;;;;;6.50;2.03;;;;;;;;;;5014996;28;20037;-76
2022/11/15 15:07:14;;;;;;;8.43;2.13;;;;;;;;;;5015842;28;20033;-76
2022/11/15 15:09:43;;;;;;;4.35;2.35;;;;;;;;;;5024480;28;20037;-75
2022/11/15 15:12:21;;;;;;;4.37;1.80;;;;;;;;;;5020744;28;20037;-76